createdAt,value
2023-05-14T00:00:25.064Z,12.02
2023-05-14T00:01:24.940Z,12.02
2023-05-14T00:02:24.942Z,11.99
2023-05-14T00:03:25.003Z,11.99
2023-05-14T00:04:24.904Z,12.01
2023-05-14T00:05:24.900Z,11.99
2023-05-14T00:06:24.852Z,11.96
2023-05-14T00:07:24.857Z,11.93
2023-05-14T00:08:24.835Z,11.89
2023-05-14T00:09:24.818Z,11.89
2023-05-14T00:10:25.060Z,11.87
2023-05-14T00:11:24.792Z,11.89
2023-05-14T00:12:24.783Z,11.89
2023-05-14T00:13:24.793Z,11.89
2023-05-14T00:14:24.765Z,11.90
2023-05-14T00:15:24.739Z,11.87
2023-05-14T00:16:24.929Z,11.87
2023-05-14T00:17:24.778Z,11.85
2023-05-14T00:18:24.740Z,11.82
2023-05-14T00:19:24.743Z,11.80
2023-05-14T00:20:24.961Z,11.80
2023-05-14T00:21:24.679Z,11.78
2023-05-14T00:22:24.671Z,11.75
2023-05-14T00:23:24.684Z,11.74
2023-05-14T00:24:24.646Z,11.70
2023-05-14T00:25:24.632Z,11.68
2023-05-14T00:26:24.629Z,11.67
2023-05-14T00:27:24.610Z,11.62
2023-05-14T00:28:24.631Z,11.61
2023-05-14T00:29:24.600Z,11.59
2023-05-14T00:30:24.798Z,11.59
2023-05-14T00:31:24.614Z,11.57
2023-05-14T00:32:24.578Z,11.54
2023-05-14T00:33:24.576Z,11.52
2023-05-14T00:34:24.560Z,11.49
2023-05-14T00:35:24.539Z,11.47
2023-05-14T00:36:24.515Z,11.49
2023-05-14T00:37:24.499Z,11.47
2023-05-14T00:38:24.498Z,11.46
2023-05-14T00:39:24.476Z,11.46
2023-05-14T00:40:24.734Z,11.46
2023-05-14T00:41:24.456Z,11.47
2023-05-14T00:42:24.452Z,11.49
2023-05-14T00:43:24.442Z,11.49
2023-05-14T00:44:24.427Z,11.50
2023-05-14T00:45:24.420Z,11.52
2023-05-14T00:46:24.447Z,11.50
2023-05-14T00:47:24.406Z,11.49
2023-05-14T00:48:24.387Z,11.46
2023-05-14T00:49:24.379Z,11.44
2023-05-14T00:50:24.603Z,11.44
2023-05-14T00:51:24.346Z,11.49
2023-05-14T00:52:24.353Z,11.49
2023-05-14T00:53:24.335Z,11.50
2023-05-14T00:54:24.303Z,11.47
2023-05-14T00:55:24.305Z,11.46
2023-05-14T00:56:24.310Z,11.41
2023-05-14T00:57:24.289Z,11.39
2023-05-14T00:58:24.266Z,11.35
2023-05-14T00:59:24.272Z,11.34
2023-05-14T01:00:24.436Z,11.31
2023-05-14T01:01:24.296Z,11.31
2023-05-14T01:02:24.311Z,11.28
2023-05-14T01:03:24.290Z,11.29
2023-05-14T01:04:24.202Z,11.29
2023-05-14T01:05:24.208Z,11.31
2023-05-14T01:06:24.178Z,11.32
2023-05-14T01:07:24.190Z,11.32
2023-05-14T01:08:24.149Z,11.36
2023-05-14T01:09:24.141Z,11.36
2023-05-14T01:10:24.486Z,11.36
2023-05-14T01:11:24.130Z,11.35
2023-05-14T01:12:24.122Z,11.35
2023-05-14T01:13:24.107Z,11.34
2023-05-14T01:14:24.095Z,11.35
2023-05-14T01:15:24.082Z,11.35
2023-05-14T01:16:24.122Z,11.34
2023-05-14T01:17:24.122Z,11.34
2023-05-14T01:18:24.138Z,11.29
2023-05-14T01:19:24.038Z,11.28
2023-05-14T01:20:26.789Z,11.24
2023-05-14T01:21:24.004Z,11.21
2023-05-14T01:22:23.997Z,11.20
2023-05-14T01:23:24.017Z,11.20
2023-05-14T01:24:23.991Z,11.19
2023-05-14T01:25:23.963Z,11.20
2023-05-14T01:26:23.954Z,11.19
2023-05-14T01:27:23.945Z,11.19
2023-05-14T01:28:23.962Z,11.16
2023-05-14T01:29:23.916Z,11.13
2023-05-14T01:30:24.166Z,11.10
2023-05-14T01:31:23.906Z,11.10
2023-05-14T01:32:25.044Z,11.11
2023-05-14T01:33:23.910Z,11.14
2023-05-14T01:34:24.468Z,11.14
2023-05-14T01:35:23.863Z,11.14
2023-05-14T01:36:23.856Z,11.16
2023-05-14T01:37:23.852Z,11.17
2023-05-14T01:38:23.869Z,11.17
2023-05-14T01:39:23.809Z,11.17
2023-05-14T01:40:24.082Z,11.20
2023-05-14T01:41:23.785Z,11.21
2023-05-14T01:42:23.780Z,11.20
2023-05-14T01:43:23.803Z,11.19
2023-05-14T01:44:23.784Z,11.19
2023-05-14T01:45:23.754Z,11.19
2023-05-14T01:46:23.781Z,11.19
2023-05-14T01:47:23.741Z,11.20
2023-05-14T01:48:23.706Z,11.24
2023-05-14T01:49:23.729Z,11.24
2023-05-14T01:50:23.908Z,11.19
2023-05-14T01:51:23.678Z,11.17
2023-05-14T01:52:24.453Z,11.13
2023-05-14T01:53:23.721Z,11.11
2023-05-14T01:54:24.444Z,11.09
2023-05-14T01:55:23.629Z,11.07
2023-05-14T01:56:23.638Z,11.03
2023-05-14T01:57:23.649Z,11.03
2023-05-14T01:58:26.391Z,11.06
2023-05-14T01:59:23.581Z,11.07
2023-05-14T02:00:23.988Z,11.06
2023-05-14T02:01:23.613Z,11.03
2023-05-14T02:02:24.522Z,11.06
2023-05-14T02:03:24.245Z,11.06
2023-05-14T02:04:24.769Z,11.06
2023-05-14T02:05:24.887Z,11.06
2023-05-14T02:06:25.445Z,11.06
2023-05-14T02:07:24.447Z,11.03
2023-05-14T02:08:24.276Z,11.03
2023-05-14T02:09:23.476Z,11.02
2023-05-14T02:10:23.845Z,10.99
2023-05-14T02:11:24.894Z,10.96
2023-05-14T02:12:26.045Z,10.96
2023-05-14T02:13:23.953Z,10.96
2023-05-14T02:14:23.946Z,10.95
2023-05-14T02:15:23.952Z,10.92
2023-05-14T02:16:23.453Z,10.89
2023-05-14T02:17:24.896Z,10.89
2023-05-14T02:18:23.950Z,10.84
2023-05-14T02:19:23.420Z,10.84
2023-05-14T02:20:23.978Z,10.83
2023-05-14T02:21:24.260Z,10.83
2023-05-14T02:22:23.362Z,10.78
2023-05-14T02:23:34.180Z,10.77
2023-05-14T02:24:23.322Z,10.74
2023-05-14T02:25:24.954Z,10.76
2023-05-14T02:26:23.970Z,10.73
2023-05-14T02:27:23.394Z,10.70
2023-05-14T02:28:23.264Z,10.66
2023-05-14T02:29:23.947Z,10.63
2023-05-14T02:30:24.152Z,10.63
2023-05-14T02:31:23.270Z,10.62
2023-05-14T02:32:23.253Z,10.60
2023-05-14T02:33:23.420Z,10.59
2023-05-14T02:34:23.190Z,10.60
2023-05-14T02:35:23.181Z,10.60
2023-05-14T02:36:23.167Z,10.56
2023-05-14T02:37:23.153Z,10.55
2023-05-14T02:38:23.153Z,10.53
2023-05-14T02:39:23.160Z,10.51
2023-05-14T02:40:23.365Z,10.44
2023-05-14T02:41:23.122Z,10.44
2023-05-14T02:42:23.125Z,10.42
2023-05-14T02:43:23.091Z,10.42
2023-05-14T02:44:23.074Z,10.43
2023-05-14T02:45:23.083Z,10.43
2023-05-14T02:46:23.095Z,10.40
2023-05-14T02:47:23.074Z,10.36
2023-05-14T02:48:23.054Z,10.33
2023-05-14T02:49:23.033Z,10.32
2023-05-14T02:50:23.239Z,10.33
2023-05-14T02:51:23.011Z,10.30
2023-05-14T02:52:23.014Z,10.28
2023-05-14T02:53:22.991Z,10.30
2023-05-14T02:54:22.980Z,10.24
2023-05-14T02:55:22.982Z,10.25
2023-05-14T02:56:22.942Z,10.26
2023-05-14T02:57:22.954Z,10.28
2023-05-14T02:58:25.912Z,10.26
2023-05-14T02:59:22.918Z,10.22
2023-05-14T03:00:23.080Z,10.22
2023-05-14T03:01:22.933Z,10.22
2023-05-14T03:02:22.908Z,10.24
2023-05-14T03:03:22.912Z,10.21
2023-05-14T03:04:22.873Z,10.15
2023-05-14T03:05:22.860Z,10.12
2023-05-14T03:06:22.842Z,10.12
2023-05-14T03:07:22.822Z,10.10
2023-05-14T03:08:22.827Z,10.09
2023-05-14T03:09:22.807Z,10.06
2023-05-14T03:10:23.051Z,10.06
2023-05-14T03:11:22.801Z,10.09
2023-05-14T03:12:22.792Z,10.06
2023-05-14T03:13:22.758Z,10.03
2023-05-14T03:14:22.762Z,10.01
2023-05-14T03:15:22.767Z,10.03
2023-05-14T03:16:22.834Z,10.01
2023-05-14T03:17:22.767Z,10.00
2023-05-14T03:18:22.706Z,9.99
2023-05-14T03:19:22.695Z,9.99
2023-05-14T03:20:22.922Z,10.00
2023-05-14T03:21:22.695Z,9.99
2023-05-14T03:22:22.672Z,9.99
2023-05-14T03:23:22.650Z,9.99
2023-05-14T03:24:22.647Z,10.01
2023-05-14T03:25:22.641Z,10.06
2023-05-14T03:26:22.644Z,10.12
2023-05-14T03:27:22.600Z,10.14
2023-05-14T03:28:22.612Z,10.17
2023-05-14T03:29:22.618Z,10.22
2023-05-14T03:30:22.836Z,10.22
2023-05-14T03:31:22.706Z,10.22
2023-05-14T03:32:22.666Z,10.19
2023-05-14T03:33:22.545Z,10.19
2023-05-14T03:34:22.545Z,10.12
2023-05-14T03:35:22.525Z,10.15
2023-05-14T03:36:22.530Z,10.15
2023-05-14T03:37:22.496Z,10.14
2023-05-14T03:38:22.488Z,10.12
2023-05-14T03:39:22.470Z,10.06
2023-05-14T03:40:22.598Z,10.01
2023-05-14T03:41:22.465Z,9.99
2023-05-14T03:42:22.463Z,9.97
2023-05-14T03:43:22.429Z,9.99
2023-05-14T03:44:22.411Z,9.97
2023-05-14T03:45:22.425Z,9.96
2023-05-14T03:46:22.401Z,9.93
2023-05-14T03:47:22.437Z,9.91
2023-05-14T03:48:22.411Z,9.91
2023-05-14T03:49:22.380Z,9.89
2023-05-14T03:50:28.912Z,9.91
2023-05-14T03:51:22.340Z,9.93
2023-05-14T03:52:22.329Z,9.93
2023-05-14T03:53:22.346Z,9.89
2023-05-14T03:54:22.308Z,9.93
2023-05-14T03:55:22.305Z,9.93
2023-05-14T03:56:22.287Z,9.91
2023-05-14T03:57:22.298Z,9.89
2023-05-14T03:58:22.287Z,9.96
2023-05-14T03:59:22.259Z,10.00
2023-05-14T04:00:22.479Z,10.04
2023-05-14T04:01:22.239Z,10.06
2023-05-14T04:02:22.255Z,10.04
2023-05-14T04:03:22.283Z,10.04
2023-05-14T04:04:22.228Z,10.03
2023-05-14T04:05:22.200Z,10.00
2023-05-14T04:06:22.183Z,9.99
2023-05-14T04:07:22.172Z,9.99
2023-05-14T04:08:22.171Z,10.00
2023-05-14T04:09:22.176Z,10.01
2023-05-14T04:10:22.482Z,10.04
2023-05-14T04:11:22.131Z,10.07
2023-05-14T04:12:22.117Z,10.07
2023-05-14T04:13:22.131Z,10.10
2023-05-14T04:14:22.106Z,10.10
2023-05-14T04:15:22.108Z,10.07
2023-05-14T04:16:22.090Z,10.10
2023-05-14T04:17:22.070Z,10.15
2023-05-14T04:18:22.056Z,10.19
2023-05-14T04:19:22.082Z,10.22
2023-05-14T04:20:22.248Z,10.22
2023-05-14T04:21:22.025Z,10.24
2023-05-14T04:22:22.006Z,10.25
2023-05-14T04:23:21.993Z,10.30
2023-05-14T04:24:22.016Z,10.28
2023-05-14T04:25:21.985Z,10.30
2023-05-14T04:26:21.962Z,10.30
2023-05-14T04:27:21.962Z,10.36
2023-05-14T04:28:21.949Z,10.39
2023-05-14T04:29:21.974Z,10.42
2023-05-14T04:30:22.049Z,10.46
2023-05-14T04:31:21.941Z,10.46
2023-05-14T04:32:21.940Z,10.51
2023-05-14T04:33:21.879Z,10.51
2023-05-14T04:34:21.872Z,10.51
2023-05-14T04:35:24.720Z,10.53
2023-05-14T04:36:21.846Z,10.56
2023-05-14T04:37:21.864Z,10.60
2023-05-14T04:38:21.824Z,10.62
2023-05-14T04:39:21.814Z,10.63
2023-05-14T04:40:22.019Z,10.65
2023-05-14T04:41:21.802Z,10.66
2023-05-14T04:42:21.785Z,10.74
2023-05-14T04:43:21.797Z,10.81
2023-05-14T04:44:21.764Z,10.84
2023-05-14T04:45:21.777Z,10.84
2023-05-14T04:46:21.796Z,10.86
2023-05-14T04:47:21.756Z,10.91
2023-05-14T04:48:21.737Z,10.94
2023-05-14T04:49:21.725Z,10.96
2023-05-14T04:50:22.050Z,11.01
2023-05-14T04:51:21.701Z,11.02
2023-05-14T04:52:21.673Z,10.99
2023-05-14T04:53:21.663Z,11.06
2023-05-14T04:54:21.662Z,11.09
2023-05-14T04:55:21.640Z,11.10
2023-05-14T04:56:21.697Z,11.13
2023-05-14T04:57:21.617Z,11.13
2023-05-14T04:58:21.608Z,11.13
2023-05-14T04:59:21.596Z,11.13
2023-05-14T05:00:22.192Z,11.13
2023-05-14T05:01:21.591Z,11.13
2023-05-14T05:02:21.560Z,11.13
2023-05-14T05:03:21.672Z,11.11
2023-05-14T05:04:21.553Z,11.14
2023-05-14T05:05:21.577Z,11.17
2023-05-14T05:06:21.524Z,11.21
2023-05-14T05:07:21.536Z,11.21
2023-05-14T05:08:21.552Z,11.20
2023-05-14T05:09:21.502Z,11.17
2023-05-14T05:10:21.676Z,11.16
2023-05-14T05:11:21.504Z,11.16
2023-05-14T05:12:21.495Z,11.16
2023-05-14T05:13:21.483Z,11.16
2023-05-14T05:14:21.430Z,11.20
2023-05-14T05:15:21.459Z,11.24
2023-05-14T05:16:21.514Z,11.27
2023-05-14T05:17:21.431Z,11.24
2023-05-14T05:18:21.469Z,11.25
2023-05-14T05:19:29.051Z,11.24
2023-05-14T05:20:21.715Z,11.20
2023-05-14T05:21:21.430Z,11.24
2023-05-14T05:22:21.517Z,11.25
2023-05-14T05:23:21.429Z,11.27
2023-05-14T05:24:21.485Z,11.28
2023-05-14T05:25:21.483Z,11.29
2023-05-14T05:26:22.017Z,11.29
2023-05-14T05:27:21.408Z,11.34
2023-05-14T05:28:21.418Z,11.35
2023-05-14T05:29:21.455Z,11.38
2023-05-14T05:30:21.363Z,11.39
2023-05-14T05:31:21.432Z,11.39
2023-05-14T05:32:21.367Z,11.41
2023-05-14T05:33:21.386Z,11.41
2023-05-14T05:34:21.316Z,11.43
2023-05-14T05:35:21.365Z,11.46
2023-05-14T05:36:21.185Z,11.53
2023-05-14T05:37:21.337Z,11.65
2023-05-14T05:38:21.699Z,11.71
2023-05-14T05:39:21.555Z,11.77
2023-05-14T05:40:21.214Z,11.78
2023-05-14T05:41:22.381Z,11.86
2023-05-14T05:42:22.232Z,11.97
2023-05-14T05:43:24.196Z,12.08
2023-05-14T05:44:24.510Z,12.11
2023-05-14T05:45:22.494Z,12.13
2023-05-14T05:46:22.729Z,12.15
2023-05-14T05:47:21.689Z,12.20
2023-05-14T05:48:21.706Z,12.24
2023-05-14T05:49:23.233Z,12.29
2023-05-14T05:50:23.576Z,12.37
2023-05-14T05:51:23.374Z,12.44
2023-05-14T05:52:22.461Z,12.46
2023-05-14T05:53:22.640Z,12.49
2023-05-14T05:54:23.132Z,12.54
2023-05-14T05:55:27.134Z,12.54
2023-05-14T05:56:21.038Z,12.56
2023-05-14T05:57:21.847Z,12.60
2023-05-14T05:58:26.274Z,12.62
2023-05-14T05:59:22.540Z,12.66
2023-05-14T06:00:22.937Z,12.69
2023-05-14T06:01:22.664Z,12.70
2023-05-14T06:02:20.974Z,12.74
2023-05-14T06:03:20.954Z,12.78
2023-05-14T06:04:20.874Z,12.82
2023-05-14T06:05:20.949Z,12.88
2023-05-14T06:06:20.858Z,12.92
2023-05-14T06:07:20.845Z,12.95
2023-05-14T06:08:20.836Z,12.97
2023-05-14T06:09:20.816Z,13.00
2023-05-14T06:10:20.827Z,13.03
2023-05-14T06:11:20.851Z,13.07
2023-05-14T06:12:20.796Z,13.12
2023-05-14T06:13:20.791Z,13.15
2023-05-14T06:14:20.770Z,13.20
2023-05-14T06:15:20.787Z,13.24
2023-05-14T06:16:20.788Z,13.29
2023-05-14T06:17:20.778Z,13.38
2023-05-14T06:18:20.723Z,13.46
2023-05-14T06:19:20.766Z,13.56
2023-05-14T06:20:20.738Z,13.65
2023-05-14T06:21:20.712Z,13.70
2023-05-14T06:22:20.672Z,13.76
2023-05-14T06:23:20.669Z,13.80
2023-05-14T06:24:20.664Z,13.87
2023-05-14T06:25:20.687Z,13.94
2023-05-14T06:26:20.675Z,13.99
2023-05-14T06:27:20.632Z,14.07
2023-05-14T06:28:20.629Z,14.12
2023-05-14T06:29:20.605Z,14.20
2023-05-14T06:30:20.621Z,14.28
2023-05-14T06:31:20.669Z,14.35
2023-05-14T06:32:20.657Z,14.42
2023-05-14T06:33:20.714Z,14.49
2023-05-14T06:34:20.591Z,14.53
2023-05-14T06:35:20.536Z,14.61
2023-05-14T06:36:20.522Z,14.67
2023-05-14T06:37:20.522Z,14.71
2023-05-14T06:38:20.519Z,14.75
2023-05-14T06:39:20.497Z,14.75
2023-05-14T06:40:20.535Z,14.80
2023-05-14T06:41:20.485Z,14.84
2023-05-14T06:42:20.528Z,14.91
2023-05-14T06:43:20.446Z,14.93
2023-05-14T06:44:20.455Z,15.01
2023-05-14T06:45:20.441Z,15.05
2023-05-14T06:46:20.427Z,15.09
2023-05-14T06:47:20.445Z,15.15
2023-05-14T06:48:20.497Z,15.19
2023-05-14T06:49:20.386Z,15.24
2023-05-14T06:50:20.397Z,15.28
2023-05-14T06:51:20.388Z,15.35
2023-05-14T06:52:20.372Z,15.38
2023-05-14T06:53:20.348Z,15.45
2023-05-14T06:54:20.369Z,15.48
2023-05-14T06:55:20.327Z,15.52
2023-05-14T06:56:20.306Z,15.57
2023-05-14T06:57:20.301Z,15.60
2023-05-14T06:58:20.302Z,15.68
2023-05-14T06:59:20.270Z,15.76
2023-05-14T07:00:20.270Z,15.79
2023-05-14T07:01:20.276Z,15.86
2023-05-14T07:02:20.274Z,15.93
2023-05-14T07:03:20.254Z,16.01
2023-05-14T07:04:20.328Z,16.06
2023-05-14T07:05:20.208Z,16.14
2023-05-14T07:06:20.190Z,16.18
2023-05-14T07:07:20.192Z,16.22
2023-05-14T07:08:20.180Z,16.23
2023-05-14T07:09:20.210Z,16.30
2023-05-14T07:10:20.190Z,16.30
2023-05-14T07:11:20.149Z,16.34
2023-05-14T07:12:20.142Z,16.37
2023-05-14T07:13:20.120Z,16.38
2023-05-14T07:14:20.110Z,16.40
2023-05-14T07:15:20.117Z,16.45
2023-05-14T07:16:20.124Z,16.50
2023-05-14T07:17:20.147Z,16.56
2023-05-14T07:18:20.100Z,16.58
2023-05-14T07:19:20.053Z,16.62
2023-05-14T07:20:20.080Z,16.70
2023-05-14T07:21:20.061Z,16.77
2023-05-14T07:22:20.040Z,16.78
2023-05-14T07:23:20.198Z,16.80
2023-05-14T07:24:19.999Z,16.80
2023-05-14T07:25:19.997Z,16.85
2023-05-14T07:26:19.980Z,16.89
2023-05-14T07:27:19.991Z,16.96
2023-05-14T07:28:19.957Z,17.03
2023-05-14T07:29:19.948Z,17.06
2023-05-14T07:30:19.935Z,17.11
2023-05-14T07:31:19.978Z,17.17
2023-05-14T07:32:19.912Z,17.22
2023-05-14T07:33:19.935Z,17.28
2023-05-14T07:34:19.896Z,17.33
2023-05-14T07:35:19.880Z,17.38
2023-05-14T07:36:19.885Z,17.40
2023-05-14T07:37:20.626Z,17.44
2023-05-14T07:38:19.853Z,17.47
2023-05-14T07:39:19.833Z,17.48
2023-05-14T07:40:19.826Z,17.51
2023-05-14T07:41:19.834Z,17.53
2023-05-14T07:42:28.314Z,17.55
2023-05-14T07:43:19.796Z,17.64
2023-05-14T07:44:19.780Z,17.69
2023-05-14T07:45:19.762Z,17.73
2023-05-14T07:46:19.762Z,17.79
2023-05-14T07:47:19.794Z,17.88
2023-05-14T07:48:19.867Z,17.94
2023-05-14T07:49:19.725Z,18.02
2023-05-14T07:50:19.724Z,18.04
2023-05-14T07:51:19.704Z,18.09
2023-05-14T07:52:19.692Z,18.13
2023-05-14T07:53:19.711Z,18.17
2023-05-14T07:54:19.681Z,18.24
2023-05-14T07:55:19.659Z,18.28
2023-05-14T07:56:19.658Z,18.29
2023-05-14T07:57:19.663Z,18.29
2023-05-14T07:58:19.652Z,18.31
2023-05-14T07:59:19.617Z,18.31
2023-05-14T08:00:19.612Z,18.34
2023-05-14T08:01:19.596Z,18.37
2023-05-14T08:02:19.670Z,18.40
2023-05-14T08:03:19.628Z,18.40
2023-05-14T08:04:19.588Z,18.43
2023-05-14T08:05:19.546Z,18.49
2023-05-14T08:06:19.552Z,18.57
2023-05-14T08:07:19.530Z,18.64
2023-05-14T08:08:19.544Z,18.70
2023-05-14T08:09:19.508Z,18.77
2023-05-14T08:10:19.520Z,18.82
2023-05-14T08:11:19.506Z,18.83
2023-05-14T08:12:19.479Z,18.84
2023-05-14T08:13:19.492Z,18.90
2023-05-14T08:14:19.456Z,18.91
2023-05-14T08:15:19.446Z,18.94
2023-05-14T08:16:19.445Z,18.98
2023-05-14T08:17:19.500Z,19.05
2023-05-14T08:18:19.447Z,19.08
2023-05-14T08:19:19.514Z,19.14
2023-05-14T08:20:19.389Z,19.13
2023-05-14T08:21:19.378Z,19.13
2023-05-14T08:22:19.368Z,19.14
2023-05-14T08:23:19.353Z,19.15
2023-05-14T08:24:19.367Z,19.11
2023-05-14T08:25:19.340Z,19.13
2023-05-14T08:26:19.328Z,19.14
2023-05-14T08:27:19.318Z,19.18
2023-05-14T08:28:19.307Z,19.23
2023-05-14T08:29:19.316Z,19.25
2023-05-14T08:30:19.285Z,19.24
2023-05-14T08:31:19.361Z,19.31
2023-05-14T08:32:23.531Z,19.33
2023-05-14T08:33:19.263Z,19.38
2023-05-14T08:34:19.263Z,19.38
2023-05-14T08:35:19.246Z,19.36
2023-05-14T08:36:19.235Z,19.35
2023-05-14T08:37:19.201Z,19.40
2023-05-14T08:38:19.219Z,19.50
2023-05-14T08:39:19.206Z,19.60
2023-05-14T08:40:19.207Z,19.68
2023-05-14T08:41:19.160Z,19.78
2023-05-14T08:42:19.146Z,19.84
2023-05-14T08:43:19.140Z,19.90
2023-05-14T08:44:19.136Z,19.98
2023-05-14T08:45:19.125Z,20.08
2023-05-14T08:46:19.128Z,20.10
2023-05-14T08:47:19.095Z,20.15
2023-05-14T08:48:19.180Z,20.15
2023-05-14T08:49:19.094Z,20.20
2023-05-14T08:50:21.129Z,20.20
2023-05-14T08:51:19.051Z,20.16
2023-05-14T08:52:19.042Z,20.18
2023-05-14T08:53:19.028Z,20.21
2023-05-14T08:54:19.045Z,20.18
2023-05-14T08:55:19.031Z,20.21
2023-05-14T08:56:19.016Z,20.24
2023-05-14T08:57:19.006Z,20.23
2023-05-14T08:58:18.979Z,20.21
2023-05-14T08:59:18.993Z,20.18
2023-05-14T09:00:18.969Z,20.25
2023-05-14T09:01:18.971Z,20.31
2023-05-14T09:02:18.964Z,20.42
2023-05-14T09:03:18.972Z,20.53
2023-05-14T09:04:19.000Z,20.59
2023-05-14T09:05:18.895Z,20.65
2023-05-14T09:06:18.893Z,20.62
2023-05-14T09:07:18.871Z,20.65
2023-05-14T09:08:18.868Z,20.66
2023-05-14T09:09:18.869Z,20.76
2023-05-14T09:10:18.862Z,20.81
2023-05-14T09:11:18.834Z,20.80
2023-05-14T09:12:18.816Z,20.80
2023-05-14T09:13:18.814Z,20.83
2023-05-14T09:14:18.816Z,20.86
2023-05-14T09:15:18.785Z,20.90
2023-05-14T09:16:18.842Z,20.86
2023-05-14T09:17:18.827Z,20.76
2023-05-14T09:18:18.758Z,20.66
2023-05-14T09:19:18.834Z,20.54
2023-05-14T09:20:18.735Z,20.47
2023-05-14T09:21:18.726Z,20.33
2023-05-14T09:22:18.743Z,20.30
2023-05-14T09:23:18.707Z,20.23
2023-05-14T09:24:18.710Z,20.13
2023-05-14T09:25:18.674Z,20.10
2023-05-14T09:26:18.709Z,20.15
2023-05-14T09:27:18.654Z,20.23
2023-05-14T09:28:18.642Z,20.30
2023-05-14T09:29:18.630Z,20.30
2023-05-14T09:30:18.648Z,20.33
2023-05-14T09:31:18.695Z,20.31
2023-05-14T09:32:18.599Z,20.34
2023-05-14T09:33:18.608Z,20.41
2023-05-14T09:34:18.587Z,20.50
2023-05-14T09:35:18.608Z,20.59
2023-05-14T09:36:18.561Z,20.72
2023-05-14T09:37:18.568Z,20.86
2023-05-14T09:38:18.540Z,20.99
2023-05-14T09:39:18.523Z,21.17
2023-05-14T09:40:18.568Z,21.30
2023-05-14T09:41:18.500Z,21.45
2023-05-14T09:42:18.496Z,21.57
2023-05-14T09:43:18.480Z,21.66
2023-05-14T09:44:18.474Z,21.72
2023-05-14T09:45:18.468Z,21.82
2023-05-14T09:46:18.526Z,21.92
2023-05-14T09:47:18.499Z,21.98
2023-05-14T09:48:18.482Z,21.98
2023-05-14T09:49:18.414Z,22.04
2023-05-14T09:50:25.957Z,22.04
2023-05-14T09:51:18.420Z,21.97
2023-05-14T09:52:18.404Z,21.92
2023-05-14T09:53:19.081Z,21.83
2023-05-14T09:54:18.389Z,21.82
2023-05-14T09:55:18.370Z,21.97
2023-05-14T09:56:18.356Z,22.06
2023-05-14T09:57:18.355Z,22.22
2023-05-14T09:58:18.340Z,22.39
2023-05-14T09:59:18.310Z,22.67
2023-05-14T10:00:18.311Z,22.86
2023-05-14T10:01:18.314Z,23.05
2023-05-14T10:02:18.287Z,23.24
2023-05-14T10:03:19.876Z,23.45
2023-05-14T10:04:18.285Z,23.62
2023-05-14T10:05:18.247Z,23.80
2023-05-14T10:06:18.248Z,23.89
2023-05-14T10:07:18.220Z,23.94
2023-05-14T10:08:18.235Z,24.22
2023-05-14T10:09:18.213Z,24.41
2023-05-14T10:10:18.190Z,24.64
2023-05-14T10:11:18.192Z,24.82
2023-05-14T10:12:18.164Z,24.94
2023-05-14T10:13:18.173Z,25.13
2023-05-14T10:14:18.193Z,25.31
2023-05-14T10:15:18.155Z,25.54
2023-05-14T10:16:18.169Z,25.84
2023-05-14T10:17:18.420Z,26.06
2023-05-14T10:18:18.244Z,26.17
2023-05-14T10:19:18.167Z,26.52
2023-05-14T10:20:18.110Z,25.71
2023-05-14T10:21:18.065Z,26.22
2023-05-14T10:22:18.064Z,26.83
2023-05-14T10:23:18.058Z,27.38
2023-05-14T10:24:18.580Z,27.84
2023-05-14T10:25:18.070Z,28.03
2023-05-14T10:26:18.030Z,26.98
2023-05-14T10:27:18.003Z,26.22
2023-05-14T10:28:17.989Z,25.65
2023-05-14T10:29:18.016Z,25.15
2023-05-14T10:30:18.000Z,24.76
2023-05-14T10:31:18.063Z,25.09
2023-05-14T10:32:17.959Z,26.28
2023-05-14T10:33:17.934Z,27.16
2023-05-14T10:34:17.931Z,27.69
2023-05-14T10:35:17.937Z,27.98
2023-05-14T10:36:17.907Z,28.46
2023-05-14T10:37:17.903Z,28.90
2023-05-14T10:38:17.906Z,29.33
2023-05-14T10:39:17.868Z,29.55
2023-05-14T10:40:18.534Z,29.72
2023-05-14T10:41:18.125Z,30.09
2023-05-14T10:42:18.500Z,30.45
2023-05-14T10:43:17.864Z,30.69
2023-05-14T10:44:18.508Z,30.68
2023-05-14T10:45:17.849Z,30.67
2023-05-14T10:46:18.621Z,30.27
2023-05-14T10:47:17.796Z,29.31
2023-05-14T10:48:17.830Z,29.47
2023-05-14T10:49:28.266Z,29.35
2023-05-14T10:50:17.868Z,29.38
2023-05-14T10:51:18.651Z,29.65
2023-05-14T10:52:17.733Z,29.93
2023-05-14T10:53:17.761Z,30.11
2023-05-14T10:54:17.711Z,30.33
2023-05-14T10:55:17.720Z,30.62
2023-05-14T10:56:18.509Z,30.72
2023-05-14T10:57:17.685Z,30.90
2023-05-14T10:58:18.584Z,31.15
2023-05-14T10:59:17.683Z,31.36
2023-05-14T11:00:17.667Z,31.24
2023-05-14T11:01:17.715Z,31.24
2023-05-14T11:02:17.699Z,31.26
2023-05-14T11:03:18.428Z,31.20
2023-05-14T11:04:17.688Z,30.86
2023-05-14T11:05:18.521Z,29.77
2023-05-14T11:06:17.597Z,28.60
2023-05-14T11:07:17.688Z,28.47
2023-05-14T11:08:17.589Z,29.37
2023-05-14T11:09:17.579Z,29.82
2023-05-14T11:10:17.626Z,29.77
2023-05-14T11:11:17.542Z,29.44
2023-05-14T11:12:17.560Z,30.03
2023-05-14T11:13:17.546Z,30.54
2023-05-14T11:14:17.527Z,30.93
2023-05-14T11:15:17.527Z,31.24
2023-05-14T11:16:23.287Z,31.12
2023-05-14T11:17:17.586Z,30.59
2023-05-14T11:18:17.514Z,29.81
2023-05-14T11:19:17.562Z,29.15
2023-05-14T11:20:17.531Z,28.58
2023-05-14T11:21:17.476Z,28.13
2023-05-14T11:22:18.042Z,27.59
2023-05-14T11:23:17.442Z,27.13
2023-05-14T11:24:18.106Z,26.37
2023-05-14T11:25:17.402Z,26.01
2023-05-14T11:26:18.303Z,25.80
2023-05-14T11:27:17.368Z,26.04
2023-05-14T11:28:17.406Z,27.41
2023-05-14T11:29:18.020Z,28.53
2023-05-14T11:30:17.558Z,29.56
2023-05-14T11:31:17.372Z,30.45
2023-05-14T11:32:17.327Z,31.24
2023-05-14T11:33:17.362Z,31.96
2023-05-14T11:34:17.306Z,32.11
2023-05-14T11:35:17.287Z,32.30
2023-05-14T11:36:18.625Z,32.51
2023-05-14T11:37:17.273Z,32.42
2023-05-14T11:38:17.283Z,32.14
2023-05-14T11:39:17.256Z,30.83
2023-05-14T11:40:17.336Z,30.26
2023-05-14T11:41:17.268Z,29.71
2023-05-14T11:42:17.232Z,29.10
2023-05-14T11:43:17.252Z,28.72
2023-05-14T11:44:17.198Z,28.40
2023-05-14T11:45:17.210Z,28.84
2023-05-14T11:46:17.284Z,28.36
2023-05-14T11:47:17.226Z,27.69
2023-05-14T11:48:17.184Z,27.38
2023-05-14T11:49:17.182Z,27.14
2023-05-14T11:50:17.164Z,26.81
2023-05-14T11:51:17.204Z,26.58
2023-05-14T11:52:17.150Z,26.43
2023-05-14T11:53:17.131Z,26.06
2023-05-14T11:54:17.126Z,25.74
2023-05-14T11:55:17.104Z,25.57
2023-05-14T11:56:17.096Z,25.53
2023-05-14T11:57:17.130Z,25.46
2023-05-14T11:58:17.079Z,25.42
2023-05-14T11:59:17.158Z,25.30
2023-05-14T12:00:17.038Z,25.28
2023-05-14T12:01:17.038Z,25.64
2023-05-14T12:02:17.048Z,25.80
2023-05-14T12:03:17.182Z,26.49
2023-05-14T12:04:17.044Z,27.77
2023-05-14T12:05:16.988Z,28.56
2023-05-14T12:06:16.967Z,29.16
2023-05-14T12:07:16.963Z,29.52
2023-05-14T12:08:16.974Z,29.59
2023-05-14T12:09:16.975Z,29.82
2023-05-14T12:10:16.924Z,30.09
2023-05-14T12:11:16.918Z,30.11
2023-05-14T12:12:16.913Z,29.82
2023-05-14T12:13:16.915Z,29.96
2023-05-14T12:14:16.918Z,29.77
2023-05-14T12:15:16.891Z,29.37
2023-05-14T12:16:16.932Z,29.78
2023-05-14T12:17:16.870Z,30.14
2023-05-14T12:18:23.866Z,30.52
2023-05-14T12:19:16.914Z,30.37
2023-05-14T12:20:16.819Z,30.43
2023-05-14T12:21:16.831Z,30.36
2023-05-14T12:22:16.814Z,30.02
2023-05-14T12:23:16.853Z,30.62
2023-05-14T12:24:16.796Z,31.01
2023-05-14T12:25:16.813Z,31.38
2023-05-14T12:26:16.762Z,32.02
2023-05-14T12:27:16.751Z,31.77
2023-05-14T12:28:16.741Z,32.47
2023-05-14T12:29:16.742Z,32.98
2023-05-14T12:30:21.847Z,33.51
2023-05-14T12:31:16.790Z,33.90
2023-05-14T12:32:17.546Z,33.51
2023-05-14T12:33:16.696Z,33.55
2023-05-14T12:34:16.687Z,33.87
2023-05-14T12:35:16.675Z,33.20
2023-05-14T12:36:21.883Z,33.49
2023-05-14T12:37:16.659Z,33.65
2023-05-14T12:38:16.645Z,33.79
2023-05-14T12:39:16.633Z,34.00
2023-05-14T12:40:16.621Z,34.05
2023-05-14T12:41:16.615Z,33.49
2023-05-14T12:42:16.639Z,33.34
2023-05-14T12:43:16.596Z,33.30
2023-05-14T12:44:16.724Z,33.55
2023-05-14T12:45:16.651Z,33.80
2023-05-14T12:46:19.636Z,34.01
2023-05-14T12:47:16.591Z,33.65
2023-05-14T12:48:16.569Z,33.39
2023-05-14T12:49:16.534Z,32.93
2023-05-14T12:50:16.553Z,32.70
2023-05-14T12:51:16.521Z,32.57
2023-05-14T12:52:25.941Z,32.05
2023-05-14T12:53:16.526Z,30.72